createdAt,value
2017-07-04T00:00:07.857Z,1018.6
2017-07-04T00:01:16.710Z,1018.58
2017-07-04T00:02:25.561Z,1018.58
2017-07-04T00:03:34.413Z,1018.57
2017-07-04T00:04:43.264Z,1018.54
2017-07-04T00:05:52.116Z,1018.57
2017-07-04T00:07:00.970Z,1018.59
2017-07-04T00:08:09.823Z,1018.61
2017-07-04T00:09:18.675Z,1018.62
2017-07-04T00:10:27.681Z,1018.64
2017-07-04T00:11:36.534Z,1018.63
2017-07-04T00:12:45.387Z,1018.62
2017-07-04T00:13:54.240Z,1018.63
2017-07-04T00:15:03.096Z,1018.58
2017-07-04T00:16:12.219Z,1018.55
2017-07-04T00:17:21.076Z,1018.61
2017-07-04T00:18:29.930Z,1018.55
2017-07-04T00:19:38.785Z,1018.58
2017-07-04T00:20:47.642Z,1018.54
2017-07-04T00:21:56.648Z,1018.58
2017-07-04T00:23:05.503Z,1018.61
2017-07-04T00:24:14.357Z,1018.59
2017-07-04T00:25:23.213Z,1018.57
2017-07-04T00:26:32.068Z,1018.55
2017-07-04T00:27:41.074Z,1018.56
2017-07-04T00:28:49.929Z,1018.54
2017-07-04T00:29:58.785Z,1018.56
2017-07-04T00:31:07.640Z,1018.58
2017-07-04T00:32:16.492Z,1018.58
2017-07-04T00:33:25.398Z,1018.58
2017-07-04T00:34:34.254Z,1018.55
2017-07-04T00:35:43.108Z,1018.59
2017-07-04T00:36:51.963Z,1018.6
2017-07-04T00:38:00.820Z,1018.62
2017-07-04T00:39:09.924Z,1018.62
2017-07-04T00:40:18.779Z,1018.58
2017-07-04T00:41:27.634Z,1018.6
2017-07-04T00:42:36.489Z,1018.59
2017-07-04T00:43:45.345Z,1018.6
2017-07-04T00:44:54.299Z,1018.6
2017-07-04T00:46:03.153Z,1018.61
2017-07-04T00:47:12.008Z,1018.65
2017-07-04T00:48:20.862Z,1018.66
2017-07-04T00:49:29.767Z,1018.7
2017-07-04T00:50:38.621Z,1018.69
2017-07-04T00:51:47.476Z,1018.66
2017-07-04T00:52:56.330Z,1018.67
2017-07-04T00:54:05.185Z,1018.61
2017-07-04T00:55:14.040Z,1018.61
2017-07-04T00:56:23.045Z,1018.58
2017-07-04T00:57:31.899Z,1018.62
2017-07-04T00:58:40.752Z,1018.59
2017-07-04T00:59:49.607Z,1018.63
2017-07-04T01:00:58.460Z,1018.63
2017-07-04T01:02:07.462Z,1018.59
2017-07-04T01:03:16.317Z,1018.55
2017-07-04T01:04:25.170Z,1018.52
2017-07-04T01:05:34.025Z,1018.6
2017-07-04T01:06:42.877Z,1018.61
2017-07-04T01:07:51.981Z,1018.64
2017-07-04T01:09:00.835Z,1018.6
2017-07-04T01:10:09.688Z,1018.56
2017-07-04T01:11:18.542Z,1018.52
2017-07-04T01:12:27.398Z,1018.58
2017-07-04T01:13:36.402Z,1018.61
2017-07-04T01:14:45.259Z,1018.58
2017-07-04T01:15:54.113Z,1018.57
2017-07-04T01:17:02.970Z,1018.6
2017-07-04T01:18:11.826Z,1018.64
2017-07-04T01:19:20.932Z,1018.62
2017-07-04T01:20:29.786Z,1018.64
2017-07-04T01:21:38.643Z,1018.68
2017-07-04T01:22:47.500Z,1018.65
2017-07-04T01:23:56.354Z,1018.7
2017-07-04T01:25:05.209Z,1018.7
2017-07-04T01:26:14.062Z,1018.7
2017-07-04T01:27:22.917Z,1018.71
2017-07-04T01:28:31.770Z,1018.67
2017-07-04T01:29:40.961Z,1018.67
2017-07-04T01:30:49.813Z,1018.64
2017-07-04T01:31:58.666Z,1018.71
2017-07-04T01:33:07.522Z,1018.64
2017-07-04T01:34:16.377Z,1018.7
2017-07-04T01:35:25.233Z,1018.69
2017-07-04T01:36:34.340Z,1018.68
2017-07-04T01:37:43.189Z,1018.66
2017-07-04T01:38:52.043Z,1018.66
2017-07-04T01:40:00.899Z,1018.67
2017-07-04T01:41:09.753Z,1018.67
2017-07-04T01:42:19.008Z,1018.72
2017-07-04T01:43:28.192Z,1018.71
2017-07-04T01:44:37.049Z,1018.74
2017-07-04T01:45:45.903Z,1018.76
2017-07-04T01:46:54.760Z,1018.85
2017-07-04T01:48:03.662Z,1018.76
2017-07-04T01:49:12.519Z,1018.83
2017-07-04T01:50:21.373Z,1018.75
2017-07-04T01:51:30.224Z,1018.78
2017-07-04T01:52:39.077Z,1018.82
2017-07-04T01:53:47.928Z,1018.82
2017-07-04T01:54:56.780Z,1018.81
2017-07-04T01:56:05.634Z,1018.83
2017-07-04T01:57:14.500Z,1018.88
2017-07-04T01:58:23.355Z,1018.86
2017-07-04T01:59:32.412Z,1018.82
2017-07-04T02:00:41.267Z,1018.86
2017-07-04T02:01:50.123Z,1018.89
2017-07-04T02:02:58.979Z,1018.84
2017-07-04T02:04:07.833Z,1018.89
2017-07-04T02:05:16.837Z,1018.88
2017-07-04T02:06:25.692Z,1018.86
2017-07-04T02:07:34.546Z,1018.85
2017-07-04T02:08:43.401Z,1018.87
2017-07-04T02:09:52.256Z,1018.88
2017-07-04T02:11:01.159Z,1018.86
2017-07-04T02:12:10.010Z,1018.84
2017-07-04T02:13:18.867Z,1018.89
2017-07-04T02:14:27.721Z,1018.87
2017-07-04T02:15:36.575Z,1018.87
2017-07-04T02:16:45.479Z,1018.85
2017-07-04T02:17:54.333Z,1018.87
2017-07-04T02:19:03.190Z,1018.84
2017-07-04T02:20:12.044Z,1018.84
2017-07-04T02:21:20.896Z,1018.89
2017-07-04T02:22:29.847Z,1018.87
2017-07-04T02:23:38.702Z,1018.85
2017-07-04T02:24:47.558Z,1018.83
2017-07-04T02:25:56.413Z,1018.85
2017-07-04T02:27:05.267Z,1018.88
2017-07-04T02:28:14.119Z,1018.89
2017-07-04T02:29:22.972Z,1018.91
2017-07-04T02:30:31.824Z,1018.93
2017-07-04T02:31:40.677Z,1018.97
2017-07-04T02:32:49.528Z,1018.98
2017-07-04T02:33:58.532Z,1019.01
2017-07-04T02:35:07.386Z,1019.03
2017-07-04T02:36:16.240Z,1018.97
2017-07-04T02:37:25.094Z,1018.98
2017-07-04T02:38:33.948Z,1018.95
2017-07-04T02:39:42.952Z,1018.94
2017-07-04T02:40:51.805Z,1018.99
2017-07-04T02:42:00.661Z,1019.01
2017-07-04T02:43:09.514Z,1019.03
2017-07-04T02:44:18.368Z,1019.01
2017-07-04T02:45:27.556Z,1019.01
2017-07-04T02:46:36.409Z,1019.03
2017-07-04T02:47:45.600Z,1018.99
2017-07-04T02:48:54.454Z,1019.05
2017-07-04T02:50:03.309Z,1019.03
2017-07-04T02:51:12.666Z,1019.05
2017-07-04T02:52:21.516Z,1019.03
2017-07-04T02:53:30.369Z,1019.04
2017-07-04T02:54:39.230Z,1019.05
2017-07-04T02:55:48.085Z,1019.06
2017-07-04T02:56:57.099Z,1019.08
2017-07-04T02:58:06.279Z,1019.1
2017-07-04T02:59:15.130Z,1019.13
2017-07-04T03:00:23.985Z,1019.15
2017-07-04T03:01:33.168Z,1019.19
2017-07-04T03:02:42.124Z,1019.18
2017-07-04T03:03:50.979Z,1019.22
2017-07-04T03:04:59.833Z,1019.27
2017-07-04T03:06:08.687Z,1019.26
2017-07-04T03:07:17.543Z,1019.3
2017-07-04T03:08:26.548Z,1019.27
2017-07-04T03:09:35.403Z,1019.31
2017-07-04T03:10:44.256Z,1019.28
2017-07-04T03:11:53.111Z,1019.27
2017-07-04T03:13:02.310Z,1019.28
2017-07-04T03:14:11.313Z,1019.28
2017-07-04T03:15:20.169Z,1019.3
2017-07-04T03:16:29.024Z,1019.29
2017-07-04T03:17:37.878Z,1019.26
2017-07-04T03:18:46.732Z,1019.31
2017-07-04T03:19:55.738Z,1019.3
2017-07-04T03:21:04.588Z,1019.32
2017-07-04T03:22:13.441Z,1019.32
2017-07-04T03:23:22.296Z,1019.37
2017-07-04T03:24:31.151Z,1019.34
2017-07-04T03:25:40.004Z,1019.34
2017-07-04T03:26:48.857Z,1019.34
2017-07-04T03:27:57.709Z,1019.32
2017-07-04T03:29:06.568Z,1019.36
2017-07-04T03:30:15.750Z,1019.34
2017-07-04T03:31:24.855Z,1019.29
2017-07-04T03:32:33.710Z,1019.35
2017-07-04T03:33:42.564Z,1019.33
2017-07-04T03:34:51.419Z,1019.34
2017-07-04T03:36:00.273Z,1019.37
2017-07-04T03:37:09.277Z,1019.36
2017-07-04T03:38:18.132Z,1019.38
2017-07-04T03:39:26.989Z,1019.43
2017-07-04T03:40:35.842Z,1019.41
2017-07-04T03:41:44.696Z,1019.4
2017-07-04T03:42:53.649Z,1019.42
2017-07-04T03:44:02.503Z,1019.43
2017-07-04T03:45:11.359Z,1019.47
2017-07-04T03:46:20.213Z,1019.47
2017-07-04T03:47:29.066Z,1019.48
2017-07-04T03:48:37.921Z,1019.45
2017-07-04T03:49:46.777Z,1019.46
2017-07-04T03:50:55.631Z,1019.48
2017-07-04T03:52:04.483Z,1019.48
2017-07-04T03:53:13.336Z,1019.47
2017-07-04T03:54:22.340Z,1019.46
2017-07-04T03:55:31.531Z,1019.5
2017-07-04T03:56:40.385Z,1019.48
2017-07-04T03:57:49.241Z,1019.49
2017-07-04T03:58:58.095Z,1019.49
2017-07-04T04:00:06.950Z,1019.51
2017-07-04T04:01:15.804Z,1019.52
2017-07-04T04:02:24.657Z,1019.5
2017-07-04T04:03:33.509Z,1019.51
2017-07-04T04:04:42.361Z,1019.56
2017-07-04T04:05:51.262Z,1019.55
2017-07-04T04:07:00.118Z,1019.56
2017-07-04T04:08:08.971Z,1019.62
2017-07-04T04:09:17.825Z,1019.6
2017-07-04T04:10:27.021Z,1019.56
2017-07-04T04:11:36.027Z,1019.6
2017-07-04T04:12:44.881Z,1019.65
2017-07-04T04:13:53.734Z,1019.63
2017-07-04T04:15:02.586Z,1019.66
2017-07-04T04:16:11.453Z,1019.7
2017-07-04T04:17:20.597Z,1019.72
2017-07-04T04:18:29.452Z,1019.69
2017-07-04T04:19:38.305Z,1019.68
2017-07-04T04:20:47.158Z,1019.71
2017-07-04T04:21:56.010Z,1019.74
2017-07-04T04:23:04.862Z,1019.72
2017-07-04T04:24:13.718Z,1019.77
2017-07-04T04:25:22.571Z,1019.74
2017-07-04T04:26:31.424Z,1019.79
2017-07-04T04:27:40.277Z,1019.75
2017-07-04T04:28:49.133Z,1019.81
2017-07-04T04:29:57.990Z,1019.83
2017-07-04T04:31:06.843Z,1019.8
2017-07-04T04:32:15.696Z,1019.82
2017-07-04T04:33:24.549Z,1019.83
2017-07-04T04:34:33.454Z,1019.83
2017-07-04T04:35:42.310Z,1019.84
2017-07-04T04:36:51.163Z,1019.83
2017-07-04T04:38:00.016Z,1019.82
2017-07-04T04:39:08.871Z,1019.84
2017-07-04T04:40:17.877Z,1019.88
2017-07-04T04:41:26.731Z,1019.86
2017-07-04T04:42:35.584Z,1019.9
2017-07-04T04:43:44.485Z,1019.91
2017-07-04T04:44:53.295Z,1019.88
2017-07-04T04:46:02.301Z,1019.88
2017-07-04T04:47:11.156Z,1019.93
2017-07-04T04:48:20.008Z,1019.9
2017-07-04T04:49:28.862Z,1019.9
2017-07-04T04:50:37.717Z,1019.9
2017-07-04T04:51:46.621Z,1019.92
2017-07-04T04:52:55.474Z,1019.95
2017-07-04T04:54:04.326Z,1019.93
2017-07-04T04:55:13.183Z,1019.94
2017-07-04T04:56:22.037Z,1019.99
2017-07-04T04:57:31.191Z,1019.98
2017-07-04T04:58:40.045Z,1020
2017-07-04T04:59:48.900Z,1020
2017-07-04T05:00:57.753Z,1020.05
2017-07-04T05:02:06.606Z,1020.01
2017-07-04T05:03:15.511Z,1019.99
2017-07-04T05:04:24.364Z,1019.98
2017-07-04T05:05:33.219Z,1019.94
2017-07-04T05:06:42.075Z,1019.97
2017-07-04T05:07:50.930Z,1019.95
2017-07-04T05:08:59.885Z,1019.99
2017-07-04T05:10:08.738Z,1019.96
2017-07-04T05:11:17.592Z,1020
2017-07-04T05:12:26.446Z,1019.97
2017-07-04T05:13:35.300Z,1019.96
2017-07-04T05:14:44.155Z,1019.96
2017-07-04T05:15:53.010Z,1019.99
2017-07-04T05:17:01.863Z,1019.98
2017-07-04T05:18:10.718Z,1020.01
2017-07-04T05:19:19.576Z,1020.04
2017-07-04T05:20:28.431Z,1020.06
2017-07-04T05:21:37.385Z,1020.07
2017-07-04T05:22:46.240Z,1020.11
2017-07-04T05:23:55.097Z,1020.1
2017-07-04T05:25:03.952Z,1020.13
2017-07-04T05:26:13.006Z,1020.15
2017-07-04T05:27:21.860Z,1020.15
2017-07-04T05:28:31.049Z,1020.14
2017-07-04T05:29:40.244Z,1020.13
2017-07-04T05:30:49.100Z,1020.17
2017-07-04T05:31:57.955Z,1020.17
2017-07-04T05:33:07.146Z,1020.19
2017-07-04T05:34:16.004Z,1020.15
2017-07-04T05:35:24.858Z,1020.17
2017-07-04T05:36:33.713Z,1020.17
2017-07-04T05:37:42.716Z,1020.19
2017-07-04T05:38:51.571Z,1020.18
2017-07-04T05:40:00.429Z,1020.23
2017-07-04T05:41:09.283Z,1020.19
2017-07-04T05:42:18.136Z,1020.18
2017-07-04T05:43:27.091Z,1020.2
2017-07-04T05:44:35.947Z,1020.24
2017-07-04T05:45:44.804Z,1020.2
2017-07-04T05:46:53.659Z,1020.26
2017-07-04T05:48:02.513Z,1020.25
2017-07-04T05:49:11.419Z,1020.28
2017-07-04T05:50:20.275Z,1020.29
2017-07-04T05:51:29.130Z,1020.33
2017-07-04T05:52:37.991Z,1020.36
2017-07-04T05:53:46.847Z,1020.36
2017-07-04T05:54:55.854Z,1020.36
2017-07-04T05:56:04.709Z,1020.36
2017-07-04T05:57:13.898Z,1020.37
2017-07-04T05:58:22.754Z,1020.34
2017-07-04T05:59:31.611Z,1020.36
2017-07-04T06:00:40.848Z,1020.4
2017-07-04T06:01:49.703Z,1020.44
2017-07-04T06:02:58.558Z,1020.48
2017-07-04T06:04:07.413Z,1020.47
2017-07-04T06:05:16.268Z,1020.51
2017-07-04T06:06:25.424Z,1020.46
2017-07-04T06:07:34.282Z,1020.5
2017-07-04T06:08:43.137Z,1020.46
2017-07-04T06:09:51.995Z,1020.44
2017-07-04T06:11:00.852Z,1020.47
2017-07-04T06:12:09.855Z,1020.46
2017-07-04T06:13:18.711Z,1020.45
2017-07-04T06:14:27.567Z,1020.43
2017-07-04T06:15:36.423Z,1020.43
2017-07-04T06:16:45.278Z,1020.46
2017-07-04T06:17:54.332Z,1020.42
2017-07-04T06:19:03.189Z,1020.44
2017-07-04T06:20:12.043Z,1020.43
2017-07-04T06:21:20.898Z,1020.44
2017-07-04T06:22:29.753Z,1020.52
2017-07-04T06:23:38.611Z,1020.52
2017-07-04T06:24:47.468Z,1020.51
2017-07-04T06:25:56.322Z,1020.55
2017-07-04T06:27:05.177Z,1020.53
2017-07-04T06:28:14.032Z,1020.48
2017-07-04T06:29:23.037Z,1020.48
2017-07-04T06:30:31.895Z,1020.46
2017-07-04T06:31:40.748Z,1020.5
2017-07-04T06:32:49.603Z,1020.47
2017-07-04T06:33:58.463Z,1020.52
2017-07-04T06:35:07.471Z,1020.5
2017-07-04T06:36:16.330Z,1020.48
2017-07-04T06:37:25.186Z,1020.52
2017-07-04T06:38:34.041Z,1020.57
2017-07-04T06:39:42.897Z,1020.62
2017-07-04T06:40:52.003Z,1020.55
2017-07-04T06:42:00.857Z,1020.62
2017-07-04T06:43:09.717Z,1020.62
2017-07-04T06:44:18.570Z,1020.63
2017-07-04T06:45:27.427Z,1020.61
2017-07-04T06:46:36.533Z,1020.63
2017-07-04T06:47:45.394Z,1020.68
2017-07-04T06:48:54.249Z,1020.69
2017-07-04T06:50:03.439Z,1020.7
2017-07-04T06:51:12.297Z,1020.65
2017-07-04T06:52:21.355Z,1020.73
2017-07-04T06:53:30.212Z,1020.69
2017-07-04T06:54:39.069Z,1020.68
2017-07-04T06:55:47.927Z,1020.7
2017-07-04T06:56:56.780Z,1020.73
2017-07-04T06:58:05.785Z,1020.71
2017-07-04T06:59:14.643Z,1020.73
2017-07-04T07:00:23.499Z,1020.76
2017-07-04T07:01:32.357Z,1020.78
2017-07-04T07:02:41.215Z,1020.81
2017-07-04T07:03:50.086Z,1020.84
2017-07-04T07:04:58.928Z,1020.78
2017-07-04T07:06:07.786Z,1020.75
2017-07-04T07:07:16.643Z,1020.8
2017-07-04T07:08:25.502Z,1020.76
2017-07-04T07:09:34.508Z,1020.91
2017-07-04T07:10:43.366Z,1020.87
2017-07-04T07:11:52.226Z,1020.87
2017-07-04T07:13:01.083Z,1020.86
2017-07-04T07:14:09.942Z,1020.82
2017-07-04T07:15:18.900Z,1020.88
2017-07-04T07:16:27.758Z,1020.85
2017-07-04T07:17:36.613Z,1020.88
2017-07-04T07:18:45.476Z,1020.82
2017-07-04T07:19:54.333Z,1020.85
2017-07-04T07:21:03.391Z,1020.85
2017-07-04T07:22:12.251Z,1020.87
2017-07-04T07:23:21.106Z,1020.85
2017-07-04T07:24:29.963Z,1020.83
2017-07-04T07:25:38.821Z,1020.91
2017-07-04T07:26:47.726Z,1020.9
2017-07-04T07:27:56.585Z,1020.93
2017-07-04T07:29:05.440Z,1020.93
2017-07-04T07:30:14.298Z,1020.88
2017-07-04T07:31:23.155Z,1020.94
2017-07-04T07:32:32.161Z,1020.92
2017-07-04T07:33:41.020Z,1020.92
2017-07-04T07:34:49.889Z,1020.92
2017-07-04T07:35:59.086Z,1020.9
2017-07-04T07:37:07.945Z,1020.92
2017-07-04T07:38:16.900Z,1020.94
2017-07-04T07:39:25.757Z,1020.91
2017-07-04T07:40:34.616Z,1020.92
2017-07-04T07:41:43.475Z,1020.88
2017-07-04T07:42:52.345Z,1020.91
2017-07-04T07:44:01.252Z,1020.99
2017-07-04T07:45:10.110Z,1021
2017-07-04T07:46:18.968Z,1021.04
2017-07-04T07:47:27.828Z,1021.07
2017-07-04T07:48:36.693Z,1021.02
2017-07-04T07:49:45.705Z,1021.04
2017-07-04T07:50:54.563Z,1021.06
2017-07-04T07:52:03.420Z,1021.06
2017-07-04T07:53:12.278Z,1021.04
2017-07-04T07:54:21.136Z,1021.04
2017-07-04T07:55:30.094Z,1021.07
2017-07-04T07:56:38.955Z,1021.16
2017-07-04T07:57:47.810Z,1021.13
2017-07-04T07:58:57.004Z,1021.08
2017-07-04T08:00:05.868Z,1021.01
2017-07-04T08:01:14.927Z,1021.03
2017-07-04T08:02:23.783Z,1021
2017-07-04T08:03:32.645Z,1021.09
2017-07-04T08:04:41.505Z,1021.13
2017-07-04T08:05:50.363Z,1021.15
2017-07-04T08:06:59.220Z,1021.16
2017-07-04T08:08:08.077Z,1021.14
2017-07-04T08:09:16.939Z,1021.05
2017-07-04T08:10:26.128Z,1021.12
2017-07-04T08:11:34.986Z,1021.1
2017-07-04T08:12:43.897Z,1021.12
2017-07-04T08:13:52.759Z,1021.07
2017-07-04T08:15:01.616Z,1021.18
2017-07-04T08:16:10.472Z,1021.1
2017-07-04T08:17:19.330Z,1021.13
2017-07-04T08:18:28.245Z,1021.14
2017-07-04T08:19:37.120Z,1021.13
2017-07-04T08:20:45.979Z,1021.19
2017-07-04T08:21:54.838Z,1021.13
2017-07-04T08:23:03.696Z,1021.1
2017-07-04T08:24:12.705Z,1021.11
2017-07-04T08:25:21.563Z,1021.06
2017-07-04T08:26:30.422Z,1021.09
2017-07-04T08:27:39.280Z,1021.04
2017-07-04T08:28:48.137Z,1021.12
2017-07-04T08:29:57.288Z,1021.1
2017-07-04T08:31:06.157Z,1021.12
2017-07-04T08:32:15.015Z,1021.12
2017-07-04T08:33:23.879Z,1021.17
2017-07-04T08:34:32.736Z,1021.08
2017-07-04T08:35:41.645Z,1021.14
2017-07-04T08:36:50.504Z,1021.11
2017-07-04T08:37:59.367Z,1021.13
2017-07-04T08:39:08.225Z,1021.19
2017-07-04T08:40:17.090Z,1021.16
2017-07-04T08:41:26.108Z,1021.1
2017-07-04T08:42:34.968Z,1021.08
2017-07-04T08:43:43.831Z,1021.14
2017-07-04T08:44:52.691Z,1021.09
2017-07-04T08:46:01.559Z,1021.13
2017-07-04T08:47:10.569Z,1021.13
2017-07-04T08:48:19.427Z,1021.15
2017-07-04T08:49:28.287Z,1021.18
2017-07-04T08:50:37.147Z,1021.16
2017-07-04T08:51:46.011Z,1021.18
2017-07-04T08:52:55.025Z,1021.14
2017-07-04T08:54:03.884Z,1021.17
2017-07-04T08:55:12.742Z,1021.13
2017-07-04T08:56:21.601Z,1021.16
2017-07-04T08:57:30.463Z,1021.22
2017-07-04T08:58:39.571Z,1021.22
2017-07-04T08:59:48.430Z,1021.18
2017-07-04T09:00:57.628Z,1021.19
2017-07-04T09:02:06.500Z,1021.17
2017-07-04T09:03:15.417Z,1021.13
2017-07-04T09:04:24.476Z,1021.15
2017-07-04T09:05:33.333Z,1021.16
2017-07-04T09:06:42.201Z,1021.2
2017-07-04T09:07:51.072Z,1021.21
2017-07-04T09:08:59.937Z,1021.15
2017-07-04T09:10:08.794Z,1021.25
2017-07-04T09:11:17.653Z,1021.2
2017-07-04T09:12:26.515Z,1021.25
2017-07-04T09:13:35.371Z,1021.2
2017-07-04T09:14:44.231Z,1021.28
2017-07-04T09:15:53.145Z,1021.32
2017-07-04T09:17:02.009Z,1021.24
2017-07-04T09:18:10.873Z,1021.16
2017-07-04T09:19:19.734Z,1021.29
2017-07-04T09:20:28.598Z,1021.25
2017-07-04T09:21:37.712Z,1021.26
2017-07-04T09:22:46.579Z,1021.22
2017-07-04T09:23:55.445Z,1021.24
2017-07-04T09:25:04.331Z,1021.27
2017-07-04T09:26:13.192Z,1021.28
2017-07-04T09:27:22.305Z,1021.26
2017-07-04T09:28:31.175Z,1021.27
2017-07-04T09:29:40.033Z,1021.3
2017-07-04T09:30:48.906Z,1021.32
2017-07-04T09:31:57.879Z,1021.33
2017-07-04T09:33:06.799Z,1021.33
2017-07-04T09:34:15.667Z,1021.37
2017-07-04T09:35:24.527Z,1021.37
2017-07-04T09:36:33.405Z,1021.36
2017-07-04T09:37:42.271Z,1021.35
2017-07-04T09:38:51.299Z,1021.34
2017-07-04T09:40:00.721Z,1021.36
2017-07-04T09:41:09.662Z,1021.36
2017-07-04T09:42:18.533Z,1021.36
2017-07-04T09:43:27.422Z,1021.36
2017-07-04T09:44:36.503Z,1021.37
2017-07-04T09:45:45.371Z,1021.27
2017-07-04T09:46:54.334Z,1021.41
2017-07-04T09:48:03.229Z,1021.29
2017-07-04T09:49:12.124Z,1021.26
2017-07-04T09:50:21.299Z,1021.29
2017-07-04T09:51:30.173Z,1021.28
2017-07-04T09:52:39.036Z,1021.3
2017-07-04T09:53:47.906Z,1021.35
2017-07-04T09:54:56.802Z,1021.34
2017-07-04T09:56:05.768Z,1021.33
2017-07-04T09:57:14.646Z,1021.34
2017-07-04T09:58:23.513Z,1021.33
2017-07-04T09:59:32.377Z,1021.29
2017-07-04T10:00:41.570Z,1021.3
2017-07-04T10:01:50.434Z,1021.34
2017-07-04T10:02:59.323Z,1021.3
2017-07-04T10:04:08.184Z,1021.37
2017-07-04T10:05:17.046Z,1021.38
2017-07-04T10:06:25.911Z,1021.39
2017-07-04T10:07:34.775Z,1021.37
2017-07-04T10:08:43.638Z,1021.36
2017-07-04T10:09:52.501Z,1021.32
2017-07-04T10:11:01.362Z,1021.32
2017-07-04T10:12:10.224Z,1021.33
2017-07-04T10:13:19.287Z,1021.3
2017-07-04T10:14:28.147Z,1021.32
2017-07-04T10:15:37.008Z,1021.29
2017-07-04T10:16:45.869Z,1021.33
2017-07-04T10:17:54.731Z,1021.34
2017-07-04T10:19:03.664Z,1021.35
2017-07-04T10:20:12.529Z,1021.33
2017-07-04T10:21:21.404Z,1021.34
2017-07-04T10:22:30.266Z,1021.31
2017-07-04T10:23:39.127Z,1021.38
2017-07-04T10:24:48.242Z,1021.38
2017-07-04T10:25:57.102Z,1021.46
2017-07-04T10:27:05.964Z,1021.41
2017-07-04T10:28:14.826Z,1021.42
2017-07-04T10:29:23.689Z,1021.42
2017-07-04T10:30:32.701Z,1021.43
2017-07-04T10:31:41.563Z,1021.43
2017-07-04T10:32:50.422Z,1021.44
2017-07-04T10:33:59.286Z,1021.46
2017-07-04T10:35:08.148Z,1021.42
2017-07-04T10:36:17.056Z,1021.47
2017-07-04T10:37:25.924Z,1021.44
2017-07-04T10:38:34.784Z,1021.47
2017-07-04T10:39:43.644Z,1021.46
2017-07-04T10:40:52.504Z,1021.48
2017-07-04T10:42:01.519Z,1021.49
2017-07-04T10:43:10.733Z,1021.42
2017-07-04T10:44:19.599Z,1021.41
2017-07-04T10:45:28.466Z,1021.41
2017-07-04T10:46:37.329Z,1021.39
2017-07-04T10:47:46.345Z,1021.3
2017-07-04T10:48:55.207Z,1021.4
2017-07-04T10:50:04.070Z,1021.39
2017-07-04T10:51:12.929Z,1021.38
2017-07-04T10:52:22.132Z,1021.34
2017-07-04T10:53:30.998Z,1021.43
2017-07-04T10:54:39.859Z,1021.37
2017-07-04T10:55:48.721Z,1021.53
2017-07-04T10:56:57.588Z,1021.41
2017-07-04T10:58:06.450Z,1021.44
2017-07-04T10:59:15.361Z,1021.39
2017-07-04T11:00:24.226Z,1021.37
2017-07-04T11:01:33.088Z,1021.39
2017-07-04T11:02:41.949Z,1021.4
2017-07-04T11:03:50.810Z,1021.36
2017-07-04T11:04:59.823Z,1021.34
2017-07-04T11:06:08.683Z,1021.34
2017-07-04T11:07:17.543Z,1021.36
2017-07-04T11:08:26.404Z,1021.32
2017-07-04T11:09:35.268Z,1021.38
2017-07-04T11:10:44.180Z,1021.38
2017-07-04T11:11:53.045Z,1021.42
2017-07-04T11:13:01.905Z,1021.39
2017-07-04T11:14:10.767Z,1021.46
2017-07-04T11:15:19.626Z,1021.39
2017-07-04T11:16:28.586Z,1021.44
2017-07-04T11:17:37.447Z,1021.39
2017-07-04T11:18:46.309Z,1021.38
2017-07-04T11:19:55.170Z,1021.44
2017-07-04T11:21:04.030Z,1021.44
2017-07-04T11:22:12.891Z,1021.42
2017-07-04T11:23:21.749Z,1021.44
2017-07-04T11:24:30.609Z,1021.43
2017-07-04T11:25:39.472Z,1021.41
2017-07-04T11:26:48.332Z,1021.38
2017-07-04T11:27:57.346Z,1021.41
2017-07-04T11:29:06.214Z,1021.32
2017-07-04T11:30:15.077Z,1021.48
2017-07-04T11:31:23.937Z,1021.45
2017-07-04T11:32:32.801Z,1021.47
2017-07-04T11:33:41.713Z,1021.52
2017-07-04T11:34:50.574Z,1021.45
2017-07-04T11:35:59.437Z,1021.5
2017-07-04T11:37:08.300Z,1021.52
2017-07-04T11:38:17.161Z,1021.46
2017-07-04T11:39:26.274Z,1021.53
2017-07-04T11:40:35.135Z,1021.5
2017-07-04T11:41:43.996Z,1021.46
2017-07-04T11:42:52.858Z,1021.51
2017-07-04T11:44:01.719Z,1021.52
2017-07-04T11:45:10.629Z,1021.5
2017-07-04T11:46:19.490Z,1021.52
2017-07-04T11:47:28.347Z,1021.53
2017-07-04T11:48:37.261Z,1021.51
2017-07-04T11:49:46.134Z,1021.53
2017-07-04T11:50:55.090Z,1021.52
2017-07-04T11:52:03.950Z,1021.53
2017-07-04T11:53:12.812Z,1021.51
2017-07-04T11:54:21.670Z,1021.46
2017-07-04T11:55:30.534Z,1021.44
2017-07-04T11:56:39.455Z,1021.49
2017-07-04T11:57:48.314Z,1021.45
2017-07-04T11:58:57.179Z,1021.45
2017-07-04T12:00:06.042Z,1021.44
2017-07-04T12:01:14.904Z,1021.51
2017-07-04T12:02:23.814Z,1021.45
2017-07-04T12:03:32.681Z,1021.49
2017-07-04T12:04:41.544Z,1021.48
2017-07-04T12:05:50.405Z,1021.46
2017-07-04T12:06:59.268Z,1021.59
2017-07-04T12:08:08.335Z,1021.51
2017-07-04T12:09:17.201Z,1021.53
2017-07-04T12:10:26.066Z,1021.49
2017-07-04T12:11:34.928Z,1021.56
2017-07-04T12:12:43.800Z,1021.5
2017-07-04T12:13:52.817Z,1021.57
2017-07-04T12:15:01.684Z,1021.64
2017-07-04T12:16:10.554Z,1021.66
2017-07-04T12:17:19.419Z,1021.65
2017-07-04T12:18:28.290Z,1021.56
2017-07-04T12:19:37.458Z,1021.59
2017-07-04T12:20:46.328Z,1021.67
2017-07-04T12:21:55.197Z,1021.68
2017-07-04T12:23:04.063Z,1021.65
2017-07-04T12:24:12.931Z,1021.7
2017-07-04T12:25:22.099Z,1021.74
2017-07-04T12:26:30.970Z,1021.64
2017-07-04T12:27:39.834Z,1021.62
2017-07-04T12:28:48.703Z,1021.69
2017-07-04T12:29:57.571Z,1021.63
2017-07-04T12:31:06.591Z,1021.7
2017-07-04T12:32:15.464Z,1021.7
2017-07-04T12:33:24.337Z,1021.6
2017-07-04T12:34:33.208Z,1021.58
2017-07-04T12:35:42.087Z,1021.61
2017-07-04T12:36:51.009Z,1021.63
2017-07-04T12:37:59.883Z,1021.74
2017-07-04T12:39:08.748Z,1021.65
2017-07-04T12:40:17.617Z,1021.6
2017-07-04T12:41:26.484Z,1021.47
2017-07-04T12:42:35.360Z,1021.56
2017-07-04T12:43:44.232Z,1021.52
2017-07-04T12:44:53.430Z,1021.44
2017-07-04T12:46:02.300Z,1021.46
2017-07-04T12:47:11.170Z,1021.47
2017-07-04T12:48:20.293Z,1021.55
2017-07-04T12:49:29.161Z,1021.51
2017-07-04T12:50:38.032Z,1021.48
2017-07-04T12:51:46.899Z,1021.56
2017-07-04T12:52:55.776Z,1021.62
2017-07-04T12:54:04.696Z,1021.54
2017-07-04T12:55:13.588Z,1021.61
2017-07-04T12:56:22.491Z,1021.53
2017-07-04T12:57:31.374Z,1021.55
2017-07-04T12:58:40.240Z,1021.53
2017-07-04T12:59:49.158Z,1021.57
2017-07-04T13:00:58.025Z,1021.58
2017-07-04T13:02:06.892Z,1021.73
2017-07-04T13:03:15.759Z,1021.72
2017-07-04T13:04:24.630Z,1021.79
2017-07-04T13:05:33.504Z,1021.74
2017-07-04T13:06:42.703Z,1021.66
2017-07-04T13:07:51.570Z,1021.53
2017-07-04T13:09:00.438Z,1021.59
2017-07-04T13:10:09.305Z,1021.55
2017-07-04T13:11:18.228Z,1021.63
2017-07-04T13:12:27.093Z,1021.7
2017-07-04T13:13:35.962Z,1021.7
2017-07-04T13:14:44.832Z,1021.62
2017-07-04T13:15:53.700Z,1021.7
2017-07-04T13:17:02.719Z,1021.7
2017-07-04T13:18:11.589Z,1021.78
2017-07-04T13:19:20.458Z,1021.66
2017-07-04T13:20:29.325Z,1021.76
2017-07-04T13:21:38.195Z,1021.72
2017-07-04T13:22:47.168Z,1021.7
2017-07-04T13:23:56.046Z,1021.75
2017-07-04T13:25:04.920Z,1021.69
2017-07-04T13:26:13.795Z,1021.58
2017-07-04T13:27:22.669Z,1021.6
2017-07-04T13:28:31.868Z,1021.62
2017-07-04T13:29:40.740Z,1021.6
2017-07-04T13:30:49.612Z,1021.68
2017-07-04T13:31:58.483Z,1021.64
2017-07-04T13:33:07.361Z,1021.67
2017-07-04T13:34:16.333Z,1021.64
2017-07-04T13:35:25.213Z,1021.67
2017-07-04T13:36:34.086Z,1021.69
2017-07-04T13:37:42.961Z,1021.66
2017-07-04T13:38:51.839Z,1021.64
2017-07-04T13:40:00.818Z,1021.71
2017-07-04T13:41:09.698Z,1021.69
2017-07-04T13:42:18.573Z,1021.55
2017-07-04T13:43:27.451Z,1021.75
2017-07-04T13:44:36.327Z,1021.75
2017-07-04T13:45:45.405Z,1021.78
2017-07-04T13:46:54.284Z,1021.77
2017-07-04T13:48:03.494Z,1021.79
2017-07-04T13:49:12.370Z,1021.8
2017-07-04T13:50:21.246Z,1021.69
2017-07-04T13:51:30.278Z,1021.59
2017-07-04T13:52:39.160Z,1021.54
2017-07-04T13:53:48.035Z,1021.74
2017-07-04T13:54:56.915Z,1021.59
2017-07-04T13:56:05.790Z,1021.59